createdAt,value
2022-08-17T00:00:56.879Z,20.40
2022-08-17T00:02:30.753Z,20.30
2022-08-17T00:04:11.693Z,20.40
2022-08-17T00:05:46.806Z,20.30
2022-08-17T00:07:21.549Z,20.30
2022-08-17T00:08:56.584Z,20.10
2022-08-17T00:10:28.843Z,20.00
2022-08-17T00:12:43.115Z,19.90
2022-08-17T00:14:03.047Z,19.80
2022-08-17T00:15:35.208Z,19.70
2022-08-17T00:17:08.362Z,19.70
2022-08-17T00:19:01.850Z,19.70
2022-08-17T00:20:35.188Z,19.60
2022-08-17T00:22:34.870Z,19.50
2022-08-17T00:24:03.045Z,19.40
2022-08-17T00:25:35.279Z,19.30
2022-08-17T00:27:08.453Z,19.30
2022-08-17T00:28:41.785Z,19.30
2022-08-17T00:30:14.684Z,19.30
2022-08-17T00:31:47.983Z,19.30
2022-08-17T00:33:23.767Z,19.30
2022-08-17T00:34:57.032Z,19.30
2022-08-17T00:36:30.488Z,19.30
2022-08-17T00:38:04.969Z,19.30
2022-08-17T00:39:40.953Z,19.30
2022-08-17T00:41:16.435Z,19.30
2022-08-17T00:42:49.441Z,19.30
2022-08-17T00:44:22.980Z,19.30
2022-08-17T00:46:06.051Z,19.40
2022-08-17T00:47:39.281Z,19.40
2022-08-17T00:49:13.525Z,19.40
2022-08-17T00:50:54.778Z,19.40
2022-08-17T00:52:33.700Z,19.40
2022-08-17T00:54:11.997Z,19.30
2022-08-17T00:55:46.703Z,19.30
2022-08-17T00:57:21.693Z,19.30
2022-08-17T00:58:56.213Z,19.30
2022-08-17T01:00:33.609Z,19.30
2022-08-17T01:02:09.604Z,19.30
2022-08-17T01:03:43.992Z,19.20
2022-08-17T01:05:21.036Z,19.20
2022-08-17T01:06:55.766Z,19.10
2022-08-17T01:08:30.971Z,19.00
2022-08-17T01:10:07.049Z,18.90
2022-08-17T01:11:40.817Z,18.90
2022-08-17T01:13:15.299Z,18.80
2022-08-17T01:14:48.579Z,18.70
2022-08-17T01:16:25.534Z,18.70
2022-08-17T01:17:58.914Z,18.70
2022-08-17T01:19:35.850Z,18.70
2022-08-17T01:21:15.757Z,18.60
2022-08-17T01:22:50.446Z,18.50
2022-08-17T01:24:23.763Z,18.40
2022-08-17T01:25:59.074Z,18.30
2022-08-17T01:27:32.874Z,18.30
2022-08-17T01:29:07.714Z,18.20
2022-08-17T01:30:58.930Z,18.20
2022-08-17T01:32:32.992Z,18.20
2022-08-17T01:34:08.727Z,18.10
2022-08-17T01:35:42.264Z,18.10
2022-08-17T01:37:16.382Z,18.10
2022-08-17T01:38:51.033Z,18.10
2022-08-17T01:40:31.191Z,18.10
2022-08-17T01:42:08.431Z,18.10
2022-08-17T01:43:45.760Z,18.10
2022-08-17T01:45:22.958Z,18.10
2022-08-17T01:46:56.126Z,18.10
2022-08-17T01:48:32.833Z,18.00
2022-08-17T01:50:08.565Z,18.00
2022-08-17T01:51:41.853Z,18.00
2022-08-17T01:53:19.417Z,18.00
2022-08-17T01:54:54.778Z,17.90
2022-08-17T01:56:29.803Z,17.80
2022-08-17T01:58:03.330Z,17.70
2022-08-17T01:59:35.487Z,17.70
2022-08-17T02:01:09.492Z,17.60
2022-08-17T02:02:45.920Z,17.60
2022-08-17T02:04:19.166Z,17.50
2022-08-17T02:05:53.238Z,17.50
2022-08-17T02:07:27.033Z,17.50
2022-08-17T02:09:02.689Z,17.40
2022-08-17T02:10:38.223Z,17.40
2022-08-17T02:12:37.613Z,17.30
2022-08-17T02:14:13.269Z,17.30
2022-08-17T02:15:46.867Z,17.20
2022-08-17T02:17:19.032Z,17.10
2022-08-17T02:18:52.214Z,17.10
2022-08-17T02:20:41.750Z,17.10
2022-08-17T02:22:18.229Z,17.00
2022-08-17T02:23:50.749Z,17.00
2022-08-17T02:25:23.905Z,16.90
2022-08-17T02:26:58.036Z,16.90
2022-08-17T02:28:31.208Z,16.90
2022-08-17T02:30:05.516Z,16.90
2022-08-17T02:32:00.151Z,16.90
2022-08-17T02:33:41.709Z,16.80
2022-08-17T02:35:16.726Z,16.80
2022-08-17T02:36:53.411Z,16.70
2022-08-17T02:38:26.764Z,16.70
2022-08-17T02:40:00.561Z,16.70
2022-08-17T02:41:34.206Z,16.70
2022-08-17T02:43:09.986Z,16.60
2022-08-17T02:44:43.769Z,16.60
2022-08-17T02:46:15.901Z,16.60
2022-08-17T02:47:49.049Z,16.50
2022-08-17T02:49:22.189Z,16.60
2022-08-17T02:50:55.500Z,16.50
2022-08-17T02:52:43.003Z,16.50
2022-08-17T02:54:41.386Z,16.40
2022-08-17T02:56:10.822Z,16.40
2022-08-17T02:57:43.431Z,16.40
2022-08-17T02:59:18.118Z,16.30
2022-08-17T03:00:51.262Z,16.30
2022-08-17T03:02:23.554Z,16.30
2022-08-17T03:03:57.090Z,16.30
2022-08-17T03:05:31.788Z,16.20
2022-08-17T03:07:06.637Z,16.20
2022-08-17T03:08:40.625Z,16.20
2022-08-17T03:10:14.445Z,16.20
2022-08-17T03:11:47.614Z,16.20
2022-08-17T03:13:23.138Z,16.10
2022-08-17T03:14:58.004Z,16.10
2022-08-17T03:16:31.084Z,16.10
2022-08-17T03:18:03.798Z,16.10
2022-08-17T03:19:36.941Z,16.10
2022-08-17T03:21:12.879Z,16.10
2022-08-17T03:22:53.070Z,16.10
2022-08-17T03:24:28.831Z,16.00
2022-08-17T03:26:02.267Z,16.00
2022-08-17T03:27:34.446Z,15.90
2022-08-17T03:29:07.735Z,15.90
2022-08-17T03:30:42.279Z,15.90
2022-08-17T03:32:17.182Z,15.80
2022-08-17T03:33:50.356Z,15.80
2022-08-17T03:35:24.721Z,15.80
2022-08-17T03:36:59.679Z,15.80
2022-08-17T03:38:38.931Z,15.80
2022-08-17T03:40:12.238Z,15.70
2022-08-17T03:41:45.417Z,15.80
2022-08-17T03:43:18.126Z,15.80
2022-08-17T03:44:51.649Z,15.80
2022-08-17T03:46:48.701Z,15.90
2022-08-17T03:48:39.041Z,15.90
2022-08-17T03:50:30.468Z,15.90
2022-08-17T03:52:20.935Z,15.90
2022-08-17T03:54:14.449Z,15.90
2022-08-17T03:56:05.018Z,15.90
2022-08-17T03:57:38.332Z,15.80
2022-08-17T03:59:21.231Z,15.80
2022-08-17T04:00:56.452Z,15.80
2022-08-17T04:02:32.945Z,15.80
2022-08-17T04:04:05.694Z,15.80
2022-08-17T04:05:38.812Z,15.80
2022-08-17T04:07:13.637Z,15.80
2022-08-17T04:08:45.809Z,15.90
2022-08-17T04:10:20.364Z,15.90
2022-08-17T04:11:57.274Z,16.00
2022-08-17T04:13:35.446Z,16.00
2022-08-17T04:15:10.044Z,16.00
2022-08-17T04:16:42.289Z,16.00
2022-08-17T04:18:17.142Z,16.10
2022-08-17T04:19:50.310Z,16.20
2022-08-17T04:21:24.161Z,16.30
2022-08-17T04:22:58.739Z,16.30
2022-08-17T04:24:32.288Z,16.30
2022-08-17T04:26:05.660Z,16.40
2022-08-17T04:27:38.802Z,16.50
2022-08-17T04:29:12.566Z,16.50
2022-08-17T04:30:47.335Z,16.60
2022-08-17T04:32:59.221Z,16.70
2022-08-17T04:34:15.876Z,16.70
2022-08-17T04:35:55.002Z,16.80
2022-08-17T04:37:28.188Z,16.80
2022-08-17T04:39:01.764Z,16.90
2022-08-17T04:40:52.507Z,17.00
2022-08-17T04:42:24.637Z,17.10
2022-08-17T04:43:58.600Z,17.10
2022-08-17T04:45:32.375Z,17.20
2022-08-17T04:47:07.151Z,17.20
2022-08-17T04:48:44.494Z,17.30
2022-08-17T04:50:19.094Z,17.50
2022-08-17T04:51:56.229Z,17.60
2022-08-17T04:53:29.591Z,17.70
2022-08-17T04:55:04.886Z,17.90
2022-08-17T04:56:39.485Z,18.00
2022-08-17T04:58:12.087Z,18.20
2022-08-17T04:59:45.226Z,18.30
2022-08-17T05:01:23.824Z,18.40
2022-08-17T05:02:58.037Z,18.50
2022-08-17T05:04:34.166Z,18.60
2022-08-17T05:06:09.228Z,18.70
2022-08-17T05:07:42.806Z,18.90
2022-08-17T05:09:17.392Z,19.00
2022-08-17T05:10:52.030Z,19.20
2022-08-17T05:12:25.216Z,19.30
2022-08-17T05:14:00.126Z,19.50
2022-08-17T05:15:36.075Z,19.60
2022-08-17T05:17:11.203Z,19.70
2022-08-17T05:18:44.650Z,19.80
2022-08-17T05:20:17.939Z,19.80
2022-08-17T05:21:52.463Z,19.90
2022-08-17T05:23:41.769Z,20.00
2022-08-17T05:25:18.978Z,20.00
2022-08-17T05:27:02.593Z,20.20
2022-08-17T05:28:39.746Z,20.30
2022-08-17T05:30:14.361Z,20.40
2022-08-17T05:31:47.550Z,20.60
2022-08-17T05:33:21.939Z,20.70
2022-08-17T05:35:00.179Z,20.80
2022-08-17T05:36:37.919Z,21.00
2022-08-17T05:38:21.354Z,21.10
2022-08-17T05:39:54.198Z,21.30
2022-08-17T05:41:27.387Z,21.50
2022-08-17T05:43:08.350Z,21.60
2022-08-17T05:44:41.486Z,21.70
2022-08-17T05:46:20.045Z,22.00
2022-08-17T05:47:52.197Z,22.80
2022-08-17T05:49:29.256Z,24.20
2022-08-17T05:51:25.637Z,25.70
2022-08-17T05:53:06.372Z,27.00
2022-08-17T05:54:51.769Z,28.20
2022-08-17T05:56:40.526Z,28.70
2022-08-17T05:58:22.732Z,30.10
2022-08-17T06:00:02.040Z,30.90
2022-08-17T06:01:53.095Z,31.00
2022-08-17T06:03:39.992Z,31.40
2022-08-17T06:05:25.388Z,31.10
2022-08-17T06:07:06.191Z,31.30
2022-08-17T06:08:51.417Z,31.40
2022-08-17T06:10:34.749Z,31.90
2022-08-17T06:12:23.157Z,31.80
2022-08-17T06:14:29.654Z,32.00
2022-08-17T06:16:28.144Z,31.70
2022-08-17T06:18:02.993Z,31.80
2022-08-17T06:19:41.606Z,31.80
2022-08-17T06:21:18.639Z,32.50
2022-08-17T06:23:05.460Z,32.60
2022-08-17T06:24:42.413Z,32.50
2022-08-17T06:26:22.085Z,32.80
2022-08-17T06:28:05.818Z,32.70
2022-08-17T06:29:47.338Z,33.10
2022-08-17T06:31:23.498Z,32.80
2022-08-17T06:32:59.468Z,33.20
2022-08-17T06:34:34.378Z,33.30
2022-08-17T06:36:24.637Z,33.10
2022-08-17T06:38:09.725Z,33.30
2022-08-17T06:40:17.661Z,33.40
2022-08-17T06:41:59.366Z,33.30
2022-08-17T06:43:59.721Z,33.90
2022-08-17T06:45:38.846Z,34.30
2022-08-17T06:47:15.596Z,34.00
2022-08-17T06:49:12.517Z,33.80
2022-08-17T06:50:50.333Z,33.90
2022-08-17T06:52:45.883Z,34.50
2022-08-17T06:54:27.440Z,35.20
2022-08-17T06:56:04.300Z,34.90
2022-08-17T06:57:46.312Z,35.40
2022-08-17T06:59:23.821Z,35.20
2022-08-17T07:00:59.229Z,34.70
2022-08-17T07:02:52.457Z,34.50
2022-08-17T07:04:32.167Z,33.70
2022-08-17T07:06:11.968Z,33.40
2022-08-17T07:08:03.064Z,34.10
2022-08-17T07:09:38.333Z,34.60
2022-08-17T07:11:15.431Z,35.00
2022-08-17T07:12:54.246Z,35.30
2022-08-17T07:14:36.726Z,35.00
2022-08-17T07:16:16.963Z,36.10
2022-08-17T07:17:50.425Z,36.30
2022-08-17T07:19:27.515Z,35.70
2022-08-17T07:21:17.586Z,36.40
2022-08-17T07:23:00.627Z,35.90
2022-08-17T07:24:41.513Z,35.20
2022-08-17T07:26:14.704Z,33.70
2022-08-17T07:27:52.770Z,34.90
2022-08-17T07:29:27.051Z,35.50
2022-08-17T07:31:00.267Z,36.00
2022-08-17T07:32:37.797Z,36.40
2022-08-17T07:34:14.616Z,36.10
2022-08-17T07:35:48.415Z,36.70
2022-08-17T07:37:21.602Z,36.60
2022-08-17T07:38:58.221Z,36.90
2022-08-17T07:40:35.133Z,37.20
2022-08-17T07:42:11.257Z,37.10
2022-08-17T07:43:49.938Z,37.30
2022-08-17T07:45:40.585Z,37.50
2022-08-17T07:47:35.509Z,38.00
2022-08-17T07:49:33.677Z,37.90
2022-08-17T07:51:26.320Z,33.10
2022-08-17T07:53:16.075Z,32.90
2022-08-17T07:54:49.544Z,33.40
2022-08-17T07:56:38.976Z,32.60
2022-08-17T07:58:18.156Z,31.10
2022-08-17T08:00:26.677Z,31.40
2022-08-17T08:02:31.848Z,32.10
2022-08-17T08:04:59.313Z,31.50
2022-08-17T08:06:24.225Z,33.00
2022-08-17T08:08:00.076Z,34.20
2022-08-17T08:09:40.205Z,34.70
2022-08-17T08:11:16.201Z,35.20
2022-08-17T08:13:01.560Z,35.00
2022-08-17T08:14:38.225Z,33.30
2022-08-17T08:16:24.717Z,34.00
2022-08-17T08:17:59.813Z,33.30
2022-08-17T08:19:33.601Z,33.30
2022-08-17T08:21:11.429Z,31.70
2022-08-17T08:22:53.172Z,31.80
2022-08-17T08:24:46.172Z,32.70
2022-08-17T08:26:28.424Z,33.50
2022-08-17T08:28:14.639Z,34.40
2022-08-17T08:29:55.158Z,34.80
2022-08-17T08:31:44.583Z,35.00
2022-08-17T08:33:37.568Z,35.70
2022-08-17T08:35:22.645Z,36.20
2022-08-17T08:37:16.418Z,35.30
2022-08-17T08:38:57.816Z,34.50
2022-08-17T08:40:46.069Z,33.40
2022-08-17T08:42:25.714Z,33.30
2022-08-17T08:44:09.039Z,34.10
2022-08-17T08:45:50.865Z,35.50
2022-08-17T08:47:45.061Z,36.10
2022-08-17T08:50:02.564Z,36.40
2022-08-17T08:51:39.396Z,36.60
2022-08-17T08:53:23.529Z,36.70
2022-08-17T08:55:03.723Z,37.50
2022-08-17T08:57:04.990Z,37.70
2022-08-17T08:58:50.555Z,37.50
2022-08-17T09:00:26.387Z,37.50
2022-08-17T09:02:09.506Z,37.90
2022-08-17T09:04:20.016Z,38.20
2022-08-17T09:06:32.623Z,38.00
2022-08-17T09:08:07.790Z,35.80
2022-08-17T09:09:50.669Z,35.70
2022-08-17T09:11:31.975Z,35.10
2022-08-17T09:13:14.485Z,36.10
2022-08-17T09:15:07.163Z,36.00
2022-08-17T09:16:46.034Z,35.10
2022-08-17T09:19:01.701Z,34.50
2022-08-17T09:20:27.174Z,34.40
2022-08-17T09:22:07.581Z,34.60
2022-08-17T09:23:45.792Z,34.50
2022-08-17T09:25:26.236Z,34.20
2022-08-17T09:27:05.744Z,34.30
2022-08-17T09:28:42.564Z,34.10
2022-08-17T09:30:16.782Z,34.00
2022-08-17T09:31:55.253Z,34.30
2022-08-17T09:33:29.197Z,34.50
2022-08-17T09:35:12.739Z,35.40
2022-08-17T09:36:55.582Z,36.40
2022-08-17T09:38:36.231Z,36.90
2022-08-17T09:40:16.946Z,37.20
2022-08-17T09:41:56.605Z,37.00
2022-08-17T09:43:37.228Z,37.50
2022-08-17T09:45:24.519Z,37.50
2022-08-17T09:47:06.700Z,37.30
2022-08-17T09:48:44.522Z,36.80
2022-08-17T09:51:03.225Z,35.80
2022-08-17T09:52:22.661Z,35.70
2022-08-17T09:54:05.300Z,35.00
2022-08-17T09:56:01.458Z,34.40
2022-08-17T09:57:55.301Z,34.30
2022-08-17T09:59:40.199Z,34.10
2022-08-17T10:01:25.074Z,34.70
2022-08-17T10:03:22.144Z,34.20
2022-08-17T10:05:02.850Z,34.30
2022-08-17T10:06:47.624Z,34.70
2022-08-17T10:08:36.103Z,35.30
2022-08-17T10:10:14.574Z,36.30
2022-08-17T10:12:11.186Z,36.70
2022-08-17T10:13:52.977Z,36.70
2022-08-17T10:15:41.669Z,36.30
2022-08-17T10:17:22.505Z,37.40
2022-08-17T10:19:06.090Z,38.20
2022-08-17T10:20:47.216Z,37.60
2022-08-17T10:22:44.290Z,37.30
2022-08-17T10:24:40.217Z,38.80
2022-08-17T10:26:53.448Z,39.40
2022-08-17T10:28:37.576Z,39.10
2022-08-17T10:30:16.761Z,39.80
2022-08-17T10:31:53.051Z,40.30
2022-08-17T10:33:36.898Z,40.20
2022-08-17T10:35:25.798Z,39.60
2022-08-17T10:37:07.767Z,40.40
2022-08-17T10:38:47.073Z,40.00
2022-08-17T10:40:31.208Z,40.30
2022-08-17T10:42:30.519Z,40.40
2022-08-17T10:44:37.452Z,40.40
2022-08-17T10:46:31.297Z,40.80
2022-08-17T10:48:28.022Z,40.80
2022-08-17T10:50:38.656Z,39.60
2022-08-17T10:52:48.611Z,40.20
2022-08-17T10:54:49.267Z,39.50
2022-08-17T10:56:25.365Z,39.20
2022-08-17T10:58:21.028Z,39.40
2022-08-17T10:59:55.126Z,39.60
2022-08-17T11:01:58.292Z,39.60
2022-08-17T11:03:32.978Z,40.10
2022-08-17T11:05:28.929Z,40.60
2022-08-17T11:07:09.889Z,40.80
2022-08-17T11:09:16.387Z,40.60
2022-08-17T11:11:07.658Z,40.10
2022-08-17T11:12:51.481Z,39.00
2022-08-17T11:14:41.736Z,39.00
2022-08-17T11:16:38.796Z,39.60
2022-08-17T11:18:29.150Z,39.90
2022-08-17T11:20:21.258Z,40.10
2022-08-17T11:22:18.666Z,39.90
2022-08-17T11:24:14.622Z,37.70
2022-08-17T11:25:53.027Z,38.90
2022-08-17T11:27:29.712Z,39.70
2022-08-17T11:29:09.440Z,40.00
2022-08-17T11:30:48.464Z,40.40
2022-08-17T11:32:48.669Z,40.70
2022-08-17T11:34:26.501Z,39.60
2022-08-17T11:36:12.402Z,38.80
2022-08-17T11:38:02.866Z,39.20
2022-08-17T11:39:50.068Z,39.20
2022-08-17T11:41:31.128Z,39.50
2022-08-17T11:43:21.141Z,39.40
2022-08-17T11:45:04.154Z,38.90
2022-08-17T11:47:10.088Z,38.50
2022-08-17T11:49:14.587Z,38.20
2022-08-17T11:51:09.837Z,38.70
2022-08-17T11:52:46.046Z,38.80
2022-08-17T11:54:39.430Z,39.30
2022-08-17T11:56:31.732Z,39.30
2022-08-17T11:58:06.796Z,38.70
2022-08-17T12:00:05.710Z,38.60
2022-08-17T12:01:57.401Z,37.70
2022-08-17T12:03:57.733Z,38.30
2022-08-17T12:05:35.997Z,38.70
2022-08-17T12:07:16.028Z,39.00
2022-08-17T12:08:57.579Z,39.70
2022-08-17T12:10:34.303Z,40.10
2022-08-17T12:12:14.970Z,40.40
2022-08-17T12:13:51.138Z,40.70
2022-08-17T12:15:31.206Z,41.10
2022-08-17T12:17:09.126Z,41.00
2022-08-17T12:18:51.820Z,41.20
2022-08-17T12:20:29.604Z,41.80
2022-08-17T12:22:09.557Z,42.00
2022-08-17T12:23:52.894Z,41.60
2022-08-17T12:25:33.884Z,40.70
2022-08-17T12:27:10.852Z,40.20
2022-08-17T12:28:48.575Z,39.20
2022-08-17T12:30:23.455Z,39.70
2022-08-17T12:31:58.904Z,39.70
2022-08-17T12:33:32.514Z,39.90
2022-08-17T12:35:07.072Z,39.70
2022-08-17T12:36:41.818Z,39.80
2022-08-17T12:38:32.182Z,39.90
2022-08-17T12:40:09.284Z,39.60
2022-08-17T12:41:44.575Z,39.90
2022-08-17T12:43:21.896Z,40.40
2022-08-17T12:44:55.032Z,39.90
2022-08-17T12:46:28.196Z,40.40
2022-08-17T12:48:06.995Z,39.90
2022-08-17T12:49:42.258Z,39.50
2022-08-17T12:51:15.381Z,39.50
2022-08-17T12:52:49.834Z,39.50
2022-08-17T12:54:29.141Z,39.60
2022-08-17T12:56:07.980Z,39.20
2022-08-17T12:57:45.029Z,38.90
2022-08-17T12:59:30.092Z,38.40
2022-08-17T13:01:07.320Z,37.60
2022-08-17T13:02:45.203Z,36.80
2022-08-17T13:04:20.608Z,36.20
2022-08-17T13:06:01.507Z,35.80
2022-08-17T13:07:42.771Z,35.30
2022-08-17T13:09:21.526Z,34.90
2022-08-17T13:10:57.179Z,34.70
2022-08-17T13:12:33.150Z,34.40
2022-08-17T13:14:11.344Z,34.30
2022-08-17T13:15:53.953Z,34.30
2022-08-17T13:17:30.068Z,34.20
2022-08-17T13:19:08.841Z,34.20
2022-08-17T13:20:54.346Z,34.20
2022-08-17T13:22:29.300Z,34.30
2022-08-17T13:24:05.876Z,35.10
2022-08-17T13:25:39.101Z,35.90
2022-08-17T13:27:15.381Z,36.30
2022-08-17T13:28:49.629Z,37.10
2022-08-17T13:30:28.222Z,36.80
2022-08-17T13:32:20.103Z,36.20
2022-08-17T13:33:53.510Z,35.90
2022-08-17T13:35:40.934Z,35.60
2022-08-17T13:37:35.218Z,35.50
2022-08-17T13:39:13.362Z,36.20
2022-08-17T13:40:51.499Z,36.80
2022-08-17T13:42:32.174Z,37.30
2022-08-17T13:44:33.461Z,37.70
2022-08-17T13:46:17.311Z,37.50
2022-08-17T13:47:50.809Z,36.50
2022-08-17T13:49:24.621Z,36.10
2022-08-17T13:51:34.590Z,35.80
2022-08-17T13:53:20.150Z,35.60
2022-08-17T13:54:55.607Z,35.70
2022-08-17T13:56:39.571Z,35.70
2022-08-17T13:58:13.144Z,35.70
2022-08-17T13:59:54.785Z,35.60
2022-08-17T14:01:30.741Z,35.40
2022-08-17T14:03:06.137Z,35.10
2022-08-17T14:04:42.363Z,34.80
2022-08-17T14:06:51.391Z,34.60
2022-08-17T14:08:13.837Z,34.60
2022-08-17T14:09:51.117Z,34.30
2022-08-17T14:11:24.730Z,34.50
2022-08-17T14:12:58.134Z,35.30
2022-08-17T14:14:32.945Z,35.60
2022-08-17T14:16:06.570Z,36.20
2022-08-17T14:17:39.757Z,36.40
2022-08-17T14:19:14.023Z,36.70
2022-08-17T14:20:47.259Z,36.80
2022-08-17T14:22:24.678Z,36.50
2022-08-17T14:23:58.832Z,36.10
2022-08-17T14:25:33.508Z,35.80
2022-08-17T14:27:09.211Z,35.40
2022-08-17T14:28:54.442Z,35.30
2022-08-17T14:30:29.995Z,35.50
2022-08-17T14:32:08.166Z,35.60
2022-08-17T14:33:41.362Z,35.90
2022-08-17T14:35:15.887Z,36.40
2022-08-17T14:36:49.206Z,36.70
2022-08-17T14:38:22.492Z,36.50
2022-08-17T14:39:56.860Z,36.40
2022-08-17T14:41:31.511Z,36.40
2022-08-17T14:43:04.653Z,35.90
2022-08-17T14:44:38.366Z,35.50
2022-08-17T14:46:12.519Z,35.20
2022-08-17T14:47:45.698Z,35.40
2022-08-17T14:49:20.657Z,35.20
2022-08-17T14:50:53.809Z,35.30
2022-08-17T14:52:26.985Z,35.30
2022-08-17T14:54:00.151Z,35.40
2022-08-17T14:55:33.519Z,35.30
2022-08-17T14:57:24.756Z,35.20
2022-08-17T14:59:01.537Z,35.00
2022-08-17T15:00:35.000Z,35.00
2022-08-17T15:02:08.419Z,35.20
2022-08-17T15:03:41.953Z,34.90
2022-08-17T15:05:18.289Z,34.60
2022-08-17T15:06:51.478Z,34.40
2022-08-17T15:08:24.573Z,34.60
2022-08-17T15:09:58.681Z,34.80
2022-08-17T15:11:33.640Z,34.90
2022-08-17T15:13:16.663Z,34.90
2022-08-17T15:14:49.935Z,35.00
2022-08-17T15:16:23.602Z,35.00
2022-08-17T15:17:57.352Z,34.70
2022-08-17T15:19:30.785Z,34.60
2022-08-17T15:21:06.100Z,34.50
2022-08-17T15:22:41.934Z,34.30
2022-08-17T15:24:15.382Z,34.10
2022-08-17T15:25:50.903Z,34.00
2022-08-17T15:27:32.157Z,34.00
2022-08-17T15:29:09.254Z,33.80
2022-08-17T15:30:44.767Z,33.60
2022-08-17T15:32:27.133Z,33.50
2022-08-17T15:34:00.575Z,33.50
2022-08-17T15:35:34.658Z,33.60
2022-08-17T15:37:07.989Z,33.60
2022-08-17T15:38:41.301Z,33.70
2022-08-17T15:40:17.781Z,33.80
2022-08-17T15:41:58.380Z,33.50
2022-08-17T15:43:33.441Z,33.40
2022-08-17T15:45:10.678Z,33.30
2022-08-17T15:46:43.835Z,33.30
2022-08-17T15:48:18.589Z,33.30
2022-08-17T15:49:55.472Z,33.30
2022-08-17T15:51:33.097Z,33.30
2022-08-17T15:53:06.294Z,33.30
2022-08-17T15:54:39.405Z,33.10
2022-08-17T15:56:15.506Z,32.80
2022-08-17T15:57:48.854Z,32.60
2022-08-17T15:59:21.988Z,32.60
2022-08-17T16:01:16.617Z,32.60
2022-08-17T16:03:14.923Z,32.70
2022-08-17T16:04:44.377Z,32.70
2022-08-17T16:06:19.761Z,32.70
2022-08-17T16:07:52.610Z,32.90
2022-08-17T16:09:26.042Z,33.00
2022-08-17T16:10:59.776Z,33.00
2022-08-17T16:12:33.977Z,33.00
2022-08-17T16:14:07.140Z,33.00
2022-08-17T16:15:40.361Z,33.00
2022-08-17T16:17:38.309Z,32.90
2022-08-17T16:19:08.049Z,33.00
2022-08-17T16:20:41.181Z,33.10
2022-08-17T16:22:15.993Z,33.10
2022-08-17T16:23:50.354Z,33.00
2022-08-17T16:25:52.227Z,33.00
2022-08-17T16:27:20.159Z,32.60
2022-08-17T16:28:53.845Z,32.50
2022-08-17T16:30:28.866Z,32.40
2022-08-17T16:32:10.162Z,32.40
2022-08-17T16:34:03.756Z,32.50
2022-08-17T16:35:38.700Z,32.50
2022-08-17T16:37:12.425Z,32.60
2022-08-17T16:38:46.846Z,32.60
2022-08-17T16:40:20.073Z,32.60
2022-08-17T16:41:52.277Z,32.50
2022-08-17T16:43:25.658Z,32.50
2022-08-17T16:45:03.987Z,32.40
2022-08-17T16:46:40.245Z,32.30
2022-08-17T16:48:18.819Z,32.10
2022-08-17T16:49:53.635Z,31.90
2022-08-17T16:51:27.349Z,31.60
2022-08-17T16:53:06.450Z,31.40
2022-08-17T16:54:41.808Z,31.20
2022-08-17T16:56:18.718Z,31.00
2022-08-17T16:57:51.884Z,30.80
2022-08-17T16:59:30.744Z,30.60
2022-08-17T17:01:05.726Z,30.30
2022-08-17T17:02:41.688Z,30.10
2022-08-17T17:04:17.367Z,29.90
2022-08-17T17:06:03.692Z,29.70
2022-08-17T17:07:58.849Z,29.60
2022-08-17T17:09:37.753Z,29.50
2022-08-17T17:11:15.612Z,29.50
2022-08-17T17:13:03.833Z,29.40
2022-08-17T17:14:41.085Z,29.30
2022-08-17T17:16:21.727Z,29.20
2022-08-17T17:18:00.423Z,29.10
2022-08-17T17:19:46.570Z,29.00
2022-08-17T17:21:26.328Z,29.00
2022-08-17T17:23:05.889Z,28.90
2022-08-17T17:24:50.076Z,28.80
2022-08-17T17:26:38.258Z,28.80
2022-08-17T17:28:22.363Z,28.60
2022-08-17T17:30:04.808Z,28.50
2022-08-17T17:31:45.853Z,28.40
2022-08-17T17:33:22.489Z,28.30
2022-08-17T17:35:01.654Z,28.20
2022-08-17T17:36:41.034Z,28.10
2022-08-17T17:38:19.953Z,28.00
2022-08-17T17:39:56.352Z,27.90
2022-08-17T17:41:34.940Z,27.80
2022-08-17T17:43:36.964Z,27.70
2022-08-17T17:45:16.884Z,27.60
2022-08-17T17:46:54.928Z,27.60
2022-08-17T17:48:29.052Z,27.50
2022-08-17T17:50:05.424Z,27.40
2022-08-17T17:52:05.211Z,27.40
2022-08-17T17:53:53.641Z,27.30
2022-08-17T17:55:39.527Z,27.10
2022-08-17T17:57:21.287Z,27.00
2022-08-17T17:58:58.942Z,26.90
2022-08-17T18:00:38.315Z,26.80
2022-08-17T18:02:42.948Z,26.70
2022-08-17T18:04:22.371Z,26.60
2022-08-17T18:06:21.264Z,26.60
2022-08-17T18:08:05.958Z,26.40
2022-08-17T18:10:13.713Z,26.30
2022-08-17T18:12:11.310Z,26.10
2022-08-17T18:13:59.219Z,26.00
2022-08-17T18:15:38.213Z,25.90
2022-08-17T18:17:11.368Z,25.80
2022-08-17T18:18:47.949Z,25.70
2022-08-17T18:20:43.397Z,25.60
2022-08-17T18:22:19.763Z,25.50
2022-08-17T18:23:59.729Z,25.40
2022-08-17T18:25:43.516Z,25.30
2022-08-17T18:27:24.028Z,25.30
2022-08-17T18:28:56.227Z,25.20
2022-08-17T18:30:29.905Z,25.20
2022-08-17T18:32:26.137Z,25.10
2022-08-17T18:34:43.744Z,25.00
2022-08-17T18:36:26.570Z,24.90
2022-08-17T18:38:20.344Z,24.90
2022-08-17T18:39:55.191Z,24.90
2022-08-17T18:41:30.419Z,24.90
2022-08-17T18:43:10.291Z,24.90
2022-08-17T18:44:45.615Z,24.80
2022-08-17T18:46:28.828Z,24.80
2022-08-17T18:48:03.002Z,24.80
2022-08-17T18:49:36.718Z,24.80
2022-08-17T18:51:39.778Z,24.80
2022-08-17T18:53:38.553Z,24.70
2022-08-17T18:55:16.740Z,24.70
2022-08-17T18:56:53.494Z,24.50
2022-08-17T18:58:25.984Z,24.50
2022-08-17T19:00:00.173Z,24.40
2022-08-17T19:01:52.485Z,24.40
2022-08-17T19:03:28.483Z,24.40
2022-08-17T19:05:08.388Z,24.20
2022-08-17T19:06:41.526Z,24.20
2022-08-17T19:08:24.802Z,24.10
2022-08-17T19:10:13.674Z,24.10
2022-08-17T19:11:47.215Z,24.10
2022-08-17T19:13:24.838Z,24.10
2022-08-17T19:14:59.143Z,24.20
2022-08-17T19:16:39.433Z,24.20
2022-08-17T19:18:19.432Z,24.30
2022-08-17T19:19:57.555Z,24.30
2022-08-17T19:21:36.271Z,24.20
2022-08-17T19:23:16.965Z,24.20
2022-08-17T19:25:02.571Z,24.20
2022-08-17T19:26:54.032Z,24.10
2022-08-17T19:28:37.800Z,23.90
2022-08-17T19:30:15.508Z,23.90
2022-08-17T19:31:49.200Z,23.80
2022-08-17T19:33:22.399Z,23.70
2022-08-17T19:34:56.875Z,23.50
2022-08-17T19:36:37.472Z,23.40
2022-08-17T19:38:21.257Z,23.20
2022-08-17T19:40:03.990Z,23.10
2022-08-17T19:41:43.769Z,22.90
2022-08-17T19:43:24.408Z,22.80
2022-08-17T19:45:08.602Z,22.60
2022-08-17T19:46:50.645Z,22.50
2022-08-17T19:48:50.116Z,22.40
2022-08-17T19:50:31.098Z,22.30
2022-08-17T19:52:20.997Z,22.20
2022-08-17T19:54:05.876Z,22.20
2022-08-17T19:55:48.706Z,22.10
2022-08-17T19:57:31.799Z,22.10
2022-08-17T19:59:12.933Z,22.00
2022-08-17T20:00:52.267Z,22.00
2022-08-17T20:02:34.501Z,21.90
2022-08-17T20:04:13.535Z,21.80
2022-08-17T20:06:11.669Z,21.90
2022-08-17T20:07:52.319Z,21.90
2022-08-17T20:09:35.720Z,21.80
2022-08-17T20:11:10.812Z,21.80
2022-08-17T20:12:45.369Z,21.70
2022-08-17T20:14:22.134Z,21.70
2022-08-17T20:15:56.641Z,21.70
2022-08-17T20:17:37.056Z,21.70
2022-08-17T20:19:20.706Z,21.70
2022-08-17T20:21:00.364Z,21.70
2022-08-17T20:22:52.199Z,21.70
2022-08-17T20:24:33.265Z,21.70
2022-08-17T20:26:19.241Z,21.70
2022-08-17T20:28:02.916Z,21.70
2022-08-17T20:30:02.060Z,21.70
2022-08-17T20:31:49.556Z,21.70
2022-08-17T20:33:29.657Z,21.70
2022-08-17T20:35:10.389Z,21.80
2022-08-17T20:36:59.341Z,21.80
2022-08-17T20:38:44.609Z,22.00
2022-08-17T20:40:31.614Z,22.00
2022-08-17T20:42:09.464Z,22.00
2022-08-17T20:44:03.324Z,21.80
2022-08-17T20:46:16.905Z,21.70
2022-08-17T20:48:18.482Z,21.70
2022-08-17T20:49:51.452Z,21.60
2022-08-17T20:51:30.476Z,21.50
2022-08-17T20:53:05.586Z,21.40
2022-08-17T20:54:52.762Z,21.40
2022-08-17T20:56:48.067Z,21.40
2022-08-17T20:58:49.696Z,21.30
2022-08-17T21:00:46.994Z,21.20
2022-08-17T21:02:21.013Z,21.00
2022-08-17T21:03:57.341Z,20.90
2022-08-17T21:05:32.404Z,20.80
2022-08-17T21:07:32.946Z,20.80
2022-08-17T21:09:31.478Z,20.70
2022-08-17T21:11:56.989Z,20.70
2022-08-17T21:13:50.991Z,20.80
2022-08-17T21:15:31.838Z,20.80
2022-08-17T21:17:17.783Z,20.90
2022-08-17T21:18:57.662Z,20.80
2022-08-17T21:20:38.701Z,20.70
2022-08-17T21:22:26.711Z,20.70
2022-08-17T21:24:20.320Z,20.60
2022-08-17T21:26:11.065Z,20.50
2022-08-17T21:28:03.949Z,20.50
2022-08-17T21:29:53.820Z,20.30
2022-08-17T21:31:34.565Z,20.40
2022-08-17T21:33:25.460Z,20.40
2022-08-17T21:35:28.386Z,20.50
2022-08-17T21:37:28.560Z,20.70
2022-08-17T21:39:08.698Z,20.90